DAH213 DAAG-EDDM
Flight info
| Callsign | DAH213 |
|---|---|
| Flight time | N/A |
| Altitude | 38000 |
| Route | OTARO1C OTARO DCT RISEP DCT KIFMI DCT OLNUL DCT TINOT DCT ODIXU DCT MAXIR DCT LUSOL DCT BODRU DCT OKTET DCT IRMAR DCT KINES DCT VANAS DCT MOBLO DCT UBIMA DCT SOSAL DCT KORED DCT BERSU N871 DITON DCT NUNRI T103 BETOS BETOS1B |
| Aircraft | A339/H-SADE1E2E3GHIJ3J5M1P2RWXY/LB2D1 |
Departure
| Time | 2026-05-07 19:46 |
|---|---|
| Airport | Houari Boumediene Airport (DAAG) |
Arrival
| Time | N/A |
|---|---|
| Airport | Munich Airport (EDDM) |
| Time | Latitude | Longitude | Altitude | Speed | Heading |
|---|---|---|---|---|---|
| 2026-05-07 19:19 | 36.69467 | 3.19492 | 68 ft | 0 kts | 360° |
| 2026-05-07 19:24 | 36.69467 | 3.19594 | 76 ft | 0 kts | 360° |
| 2026-05-07 19:25 | 36.69460 | 3.19585 | 65 ft | 0 kts | 270° |
| 2026-05-07 19:25 | 36.69456 | 3.19591 | 65 ft | 0 kts | 183° |
| 2026-05-07 19:37 | 36.69452 | 3.19591 | 76 ft | 2 kts | 183° |
| 2026-05-07 19:38 | 36.69449 | 3.19591 | 67 ft | 0 kts | 183° |
| 2026-05-07 19:38 | 36.69447 | 3.19591 | 67 ft | 2 kts | 181° |
| 2026-05-07 19:38 | 36.69414 | 3.19607 | 70 ft | 7 kts | 156° |
| 2026-05-07 19:39 | 36.69363 | 3.19634 | 66 ft | 9 kts | 156° |
| 2026-05-07 19:39 | 36.69319 | 3.19695 | 67 ft | 10 kts | 111° |
| 2026-05-07 19:39 | 36.69309 | 3.19791 | 74 ft | 12 kts | 95° |
| 2026-05-07 19:39 | 36.69306 | 3.19904 | 68 ft | 14 kts | 91° |
| 2026-05-07 19:40 | 36.69304 | 3.20036 | 76 ft | 16 kts | 91° |
| 2026-05-07 19:40 | 36.69302 | 3.20183 | 76 ft | 18 kts | 88° |
| 2026-05-07 19:40 | 36.69369 | 3.20283 | 68 ft | 16 kts | 19° |
| 2026-05-07 19:40 | 36.69442 | 3.20335 | 67 ft | 9 kts | 78° |
| 2026-05-07 19:41 | 36.69442 | 3.20424 | 76 ft | 11 kts | 90° |
| 2026-05-07 19:41 | 36.69441 | 3.20550 | 76 ft | 17 kts | 91° |
| 2026-05-07 19:41 | 36.69438 | 3.20707 | 68 ft | 19 kts | 92° |
| 2026-05-07 19:41 | 36.69402 | 3.20881 | 69 ft | 22 kts | 108° |
| 2026-05-07 19:42 | 36.69385 | 3.21072 | 76 ft | 23 kts | 90° |
| 2026-05-07 19:42 | 36.69384 | 3.21269 | 76 ft | 24 kts | 90° |
| 2026-05-07 19:42 | 36.69384 | 3.21481 | 76 ft | 26 kts | 90° |
| 2026-05-07 19:42 | 36.69381 | 3.21713 | 69 ft | 27 kts | 91° |
| 2026-05-07 19:43 | 36.69381 | 3.21758 | 69 ft | 1 kts | 91° |
| 2026-05-07 19:43 | 36.69381 | 3.21761 | 69 ft | 0 kts | 91° |
| 2026-05-07 19:44 | 36.69381 | 3.21763 | 69 ft | 0 kts | 91° |
| 2026-05-07 19:44 | 36.69381 | 3.21764 | 69 ft | 1 kts | 91° |
| 2026-05-07 19:44 | 36.69381 | 3.21798 | 70 ft | 7 kts | 90° |
| 2026-05-07 19:44 | 36.69381 | 3.21863 | 70 ft | 8 kts | 90° |
| 2026-05-07 19:45 | 36.69381 | 3.21959 | 85 ft | 14 kts | 89° |
| 2026-05-07 19:45 | 36.69410 | 3.22066 | 88 ft | 12 kts | 55° |
| 2026-05-07 19:45 | 36.69415 | 3.22072 | 90 ft | 0 kts | 51° |
| 2026-05-07 19:45 | 36.69449 | 3.22124 | 88 ft | 40 kts | 51° |
| 2026-05-07 19:46 | 36.69828 | 3.22738 | 87 ft | 135 kts | 52° |
| 2026-05-07 19:46 | 36.70549 | 3.23915 | 91 ft | 201 kts | 52° |
| 2026-05-07 19:46 | 36.71426 | 3.25302 | 1028 ft | 175 kts | 48° |
| 2026-05-07 19:46 | 36.72181 | 3.26303 | 2686 ft | 146 kts | 41° |
| 2026-05-07 19:47 | 36.72989 | 3.27165 | 3480 ft | 165 kts | 34° |
| 2026-05-07 19:47 | 36.74018 | 3.27873 | 4174 ft | 177 kts | 17° |
| 2026-05-07 19:47 | 36.75222 | 3.28266 | 5041 ft | 179 kts | 4° |
| 2026-05-07 19:47 | 36.76446 | 3.28433 | 6015 ft | 176 kts | 2° |
| 2026-05-07 19:48 | 36.77658 | 3.28658 | 6915 ft | 176 kts | 5° |
| 2026-05-07 19:48 | 36.78855 | 3.28967 | 7777 ft | 173 kts | 8° |
| 2026-05-07 19:48 | 36.79962 | 3.29332 | 8796 ft | 160 kts | 10° |
| 2026-05-07 19:48 | 36.81037 | 3.29762 | 9475 ft | 169 kts | 12° |
| 2026-05-07 19:49 | 36.82218 | 3.30293 | 9911 ft | 188 kts | 15° |
| 2026-05-07 19:49 | 36.83573 | 3.30908 | 9996 ft | 228 kts | 13° |
| 2026-05-07 19:49 | 36.85204 | 3.31432 | 10146 ft | 253 kts | 4° |
| 2026-05-07 19:49 | 36.87011 | 3.31339 | 10365 ft | 270 kts | 348° |
| 2026-05-07 19:50 | 36.88982 | 3.31486 | 10559 ft | 299 kts | 7° |
| 2026-05-07 19:50 | 36.91070 | 3.32218 | 10777 ft | 324 kts | 14° |
| 2026-05-07 19:50 | 36.93218 | 3.33227 | 10969 ft | 346 kts | 24° |
| 2026-05-07 19:50 | 36.95385 | 3.34722 | 11170 ft | 365 kts | 27° |
| 2026-05-07 19:51 | 36.97622 | 3.36342 | 11608 ft | 375 kts | 28° |
| 2026-05-07 19:51 | 36.99885 | 3.38001 | 12187 ft | 380 kts | 28° |
| 2026-05-07 19:51 | 37.02184 | 3.39681 | 12737 ft | 385 kts | 28° |
| 2026-05-07 19:51 | 37.04508 | 3.41371 | 13347 ft | 389 kts | 27° |
| 2026-05-07 19:52 | 37.06862 | 3.43078 | 13906 ft | 393 kts | 27° |
| 2026-05-07 19:52 | 37.09245 | 3.44804 | 14427 ft | 397 kts | 27° |
| 2026-05-07 19:52 | 37.11649 | 3.46546 | 14956 ft | 401 kts | 27° |
| 2026-05-07 19:52 | 37.14075 | 3.48304 | 15484 ft | 405 kts | 27° |
| 2026-05-07 19:53 | 37.16519 | 3.50078 | 16021 ft | 408 kts | 26° |
| 2026-05-07 19:53 | 37.18996 | 3.51876 | 16546 ft | 412 kts | 26° |
| 2026-05-07 19:53 | 37.21469 | 3.53627 | 17063 ft | 414 kts | 22° |
| 2026-05-07 19:53 | 37.24152 | 3.54880 | 17593 ft | 412 kts | 13° |
| 2026-05-07 19:54 | 37.26909 | 3.55907 | 18165 ft | 414 kts | 11° |
| 2026-05-07 19:54 | 37.29695 | 3.56908 | 18657 ft | 417 kts | 11° |
| 2026-05-07 19:54 | 37.32499 | 3.57939 | 19004 ft | 426 kts | 11° |
| 2026-05-07 19:54 | 37.34440 | 3.58668 | 19105 ft | 435 kts | 12° |
| 2026-05-07 19:55 | 37.37335 | 3.59775 | 19307 ft | 445 kts | 12° |
| 2026-05-07 19:55 | 37.40304 | 3.60931 | 19790 ft | 448 kts | 12° |
| 2026-05-07 19:55 | 37.43290 | 3.62103 | 20276 ft | 451 kts | 12° |
| 2026-05-07 19:55 | 37.46300 | 3.63284 | 20764 ft | 454 kts | 12° |
| 2026-05-07 19:56 | 37.49331 | 3.64472 | 21227 ft | 458 kts | 12° |
| 2026-05-07 19:56 | 37.52382 | 3.65668 | 21695 ft | 461 kts | 12° |
| 2026-05-07 19:56 | 37.55457 | 3.66874 | 22168 ft | 465 kts | 12° |
| 2026-05-07 19:56 | 37.58557 | 3.68090 | 22631 ft | 468 kts | 12° |
| 2026-05-07 19:57 | 37.61682 | 3.69318 | 23099 ft | 472 kts | 12° |
| 2026-05-07 19:57 | 37.64828 | 3.70555 | 23544 ft | 475 kts | 12° |
| 2026-05-07 19:57 | 37.67993 | 3.71801 | 23951 ft | 478 kts | 13° |
| 2026-05-07 19:57 | 37.71179 | 3.73056 | 24372 ft | 480 kts | 13° |
| 2026-05-07 19:58 | 37.74336 | 3.74301 | 24778 ft | 483 kts | 13° |
| 2026-05-07 19:58 | 37.77562 | 3.75574 | 25168 ft | 486 kts | 13° |
| 2026-05-07 19:58 | 37.80794 | 3.76851 | 25565 ft | 488 kts | 13° |
| 2026-05-07 19:58 | 37.84044 | 3.78135 | 25955 ft | 490 kts | 13° |
| 2026-05-07 19:59 | 37.87308 | 3.79426 | 26332 ft | 493 kts | 13° |
| 2026-05-07 19:59 | 37.90587 | 3.80725 | 26704 ft | 495 kts | 13° |
| 2026-05-07 19:59 | 37.93884 | 3.82032 | 27073 ft | 498 kts | 13° |
| 2026-05-07 19:59 | 37.97192 | 3.83345 | 27433 ft | 500 kts | 13° |
| 2026-05-07 20:00 | 38.00519 | 3.84666 | 27773 ft | 502 kts | 13° |
| 2026-05-07 20:00 | 38.03859 | 3.85994 | 28062 ft | 504 kts | 13° |
| 2026-05-07 20:00 | 38.07216 | 3.87330 | 28324 ft | 506 kts | 13° |
| 2026-05-07 20:00 | 38.10577 | 3.88669 | 28533 ft | 508 kts | 13° |
| 2026-05-07 20:01 | 38.13956 | 3.90016 | 28723 ft | 509 kts | 14° |
| 2026-05-07 20:01 | 38.17296 | 3.91349 | 28876 ft | 510 kts | 14° |
| 2026-05-07 20:01 | 38.20691 | 3.92706 | 29017 ft | 511 kts | 14° |
| 2026-05-07 20:01 | 38.24086 | 3.94063 | 29125 ft | 513 kts | 14° |
| 2026-05-07 20:02 | 38.30906 | 3.96794 | 29295 ft | 515 kts | 14° |
| 2026-05-07 20:02 | 38.34323 | 3.98165 | 29404 ft | 515 kts | 14° |
| 2026-05-07 20:02 | 38.37710 | 3.99526 | 30136 ft | 503 kts | 14° |
| 2026-05-07 20:03 | 38.40991 | 4.00850 | 31135 ft | 488 kts | 14° |
| 2026-05-07 20:03 | 38.44235 | 4.02156 | 31563 ft | 490 kts | 14° |
| 2026-05-07 20:03 | 38.47506 | 4.03468 | 31829 ft | 494 kts | 14° |
| 2026-05-07 20:03 | 38.50793 | 4.04789 | 32146 ft | 497 kts | 14° |
| 2026-05-07 20:04 | 38.54096 | 4.06119 | 32439 ft | 499 kts | 14° |
| 2026-05-07 20:04 | 38.57425 | 4.07423 | 32690 ft | 501 kts | 12° |
| 2026-05-07 20:04 | 38.60826 | 4.08440 | 32920 ft | 501 kts | 8° |
| 2026-05-07 20:04 | 38.64199 | 4.09310 | 33136 ft | 503 kts | 7° |
| 2026-05-07 20:05 | 38.67679 | 4.10207 | 33326 ft | 505 kts | 8° |
| 2026-05-07 20:05 | 38.71079 | 4.11117 | 33510 ft | 506 kts | 8° |
| 2026-05-07 20:05 | 38.74521 | 4.12069 | 33752 ft | 506 kts | 9° |
| 2026-05-07 20:05 | 38.77967 | 4.13041 | 33980 ft | 506 kts | 9° |
| 2026-05-07 20:06 | 38.81406 | 4.14020 | 34166 ft | 507 kts | 9° |
| 2026-05-07 20:06 | 38.84851 | 4.15004 | 34349 ft | 507 kts | 9° |
| 2026-05-07 20:06 | 38.88299 | 4.15990 | 34550 ft | 507 kts | 9° |
| 2026-05-07 20:06 | 38.91746 | 4.16976 | 34737 ft | 507 kts | 9° |
| 2026-05-07 20:07 | 38.95197 | 4.17964 | 34918 ft | 508 kts | 9° |
| 2026-05-07 20:07 | 38.98650 | 4.18953 | 35101 ft | 508 kts | 9° |
| 2026-05-07 20:07 | 39.02109 | 4.19945 | 35297 ft | 508 kts | 9° |
| 2026-05-07 20:07 | 39.05532 | 4.20927 | 35479 ft | 509 kts | 9° |
| 2026-05-07 20:08 | 39.08992 | 4.21921 | 35658 ft | 509 kts | 9° |
| 2026-05-07 20:08 | 39.12451 | 4.22915 | 35840 ft | 509 kts | 9° |
| 2026-05-07 20:08 | 39.15912 | 4.23912 | 36042 ft | 509 kts | 8° |
| 2026-05-07 20:08 | 39.19369 | 4.24908 | 36240 ft | 509 kts | 8° |
| 2026-05-07 20:09 | 39.22831 | 4.25906 | 36425 ft | 509 kts | 8° |
| 2026-05-07 20:09 | 39.26252 | 4.26894 | 36618 ft | 509 kts | 8° |
| 2026-05-07 20:09 | 39.29705 | 4.27892 | 36812 ft | 508 kts | 8° |
| 2026-05-07 20:10 | 39.36610 | 4.29891 | 37185 ft | 508 kts | 8° |
| 2026-05-07 20:10 | 39.40061 | 4.30891 | 37411 ft | 508 kts | 8° |
| 2026-05-07 20:10 | 39.43516 | 4.31894 | 37605 ft | 508 kts | 8° |
| 2026-05-07 20:10 | 39.46961 | 4.32895 | 37793 ft | 507 kts | 8° |
| 2026-05-07 20:11 | 39.50418 | 4.33901 | 37943 ft | 508 kts | 8° |
| 2026-05-07 20:11 | 39.57295 | 4.35904 | 37970 ft | 505 kts | 8° |
| 2026-05-07 20:12 | 39.64162 | 4.37907 | 37961 ft | 506 kts | 8° |
| 2026-05-07 20:12 | 39.70997 | 4.39905 | 37975 ft | 506 kts | 8° |
| 2026-05-07 20:13 | 39.77881 | 4.41922 | 37973 ft | 507 kts | 8° |
| 2026-05-07 20:13 | 39.84768 | 4.43943 | 37966 ft | 507 kts | 8° |
| 2026-05-07 20:14 | 39.91615 | 4.45958 | 37970 ft | 507 kts | 8° |
| 2026-05-07 20:14 | 39.98509 | 4.47990 | 37973 ft | 508 kts | 8° |
| 2026-05-07 20:15 | 40.05421 | 4.50032 | 37973 ft | 508 kts | 8° |
| 2026-05-07 20:15 | 40.12274 | 4.52060 | 37980 ft | 508 kts | 8° |
| 2026-05-07 20:16 | 40.19176 | 4.54108 | 37980 ft | 508 kts | 8° |
| 2026-05-07 20:16 | 40.26096 | 4.56165 | 37986 ft | 508 kts | 8° |
| 2026-05-07 20:17 | 40.32997 | 4.58221 | 37984 ft | 508 kts | 8° |
| 2026-05-07 20:17 | 40.39854 | 4.60267 | 37990 ft | 508 kts | 8° |
| 2026-05-07 20:18 | 40.46760 | 4.62333 | 37990 ft | 507 kts | 8° |
| 2026-05-07 20:18 | 40.53616 | 4.64388 | 37987 ft | 507 kts | 8° |
| 2026-05-07 20:19 | 40.60511 | 4.66459 | 37982 ft | 510 kts | 8° |
| 2026-05-07 20:19 | 40.67483 | 4.68555 | 37981 ft | 515 kts | 9° |
| 2026-05-07 20:20 | 40.74462 | 4.70661 | 37983 ft | 518 kts | 9° |
| 2026-05-07 20:20 | 40.81505 | 4.72792 | 37990 ft | 518 kts | 9° |
| 2026-05-07 20:21 | 40.88495 | 4.74910 | 37987 ft | 518 kts | 9° |
| 2026-05-07 20:21 | 40.95537 | 4.77049 | 37982 ft | 518 kts | 9° |
| 2026-05-07 20:22 | 41.02562 | 4.79187 | 37980 ft | 518 kts | 9° |
| 2026-05-07 20:22 | 41.09597 | 4.81332 | 37989 ft | 518 kts | 9° |
| 2026-05-07 20:23 | 41.16586 | 4.83468 | 37986 ft | 518 kts | 9° |
| 2026-05-07 20:23 | 41.23629 | 4.85626 | 37984 ft | 518 kts | 9° |
| 2026-05-07 20:24 | 41.30662 | 4.87785 | 37985 ft | 518 kts | 9° |
| 2026-05-07 20:24 | 41.37696 | 4.89949 | 37995 ft | 518 kts | 9° |
| 2026-05-07 20:25 | 41.44688 | 4.92105 | 37992 ft | 518 kts | 9° |
| 2026-05-07 20:25 | 41.51709 | 4.94276 | 37996 ft | 517 kts | 9° |
| 2026-05-07 20:26 | 41.58698 | 4.96440 | 37998 ft | 517 kts | 9° |
| 2026-05-07 20:26 | 41.65720 | 4.98620 | 38002 ft | 516 kts | 9° |
| 2026-05-07 20:27 | 41.72721 | 5.00799 | 38001 ft | 515 kts | 9° |
| 2026-05-07 20:27 | 41.79662 | 5.02963 | 37999 ft | 514 kts | 9° |
| 2026-05-07 20:28 | 41.86621 | 5.05138 | 37995 ft | 513 kts | 9° |
| 2026-05-07 20:28 | 41.93588 | 5.07319 | 37991 ft | 513 kts | 9° |
| 2026-05-07 20:29 | 42.00518 | 5.09495 | 37991 ft | 513 kts | 9° |
| 2026-05-07 20:29 | 42.07486 | 5.11687 | 37982 ft | 514 kts | 10° |
| 2026-05-07 20:30 | 42.14466 | 5.13888 | 37978 ft | 515 kts | 10° |
| 2026-05-07 20:30 | 42.21454 | 5.16097 | 37984 ft | 516 kts | 10° |
| 2026-05-07 20:31 | 42.28418 | 5.18303 | 37987 ft | 517 kts | 10° |
| 2026-05-07 20:31 | 42.35436 | 5.20531 | 37990 ft | 518 kts | 10° |
| 2026-05-07 20:32 | 42.42430 | 5.22757 | 37994 ft | 519 kts | 10° |
| 2026-05-07 20:32 | 42.49476 | 5.25004 | 37993 ft | 520 kts | 10° |
| 2026-05-07 20:33 | 42.56528 | 5.27258 | 37996 ft | 521 kts | 10° |
| 2026-05-07 20:33 | 42.63604 | 5.29524 | 37992 ft | 521 kts | 10° |
| 2026-05-07 20:34 | 42.70586 | 5.32188 | 37992 ft | 524 kts | 19° |
| 2026-05-07 20:34 | 42.77162 | 5.36428 | 37991 ft | 526 kts | 24° |
| 2026-05-07 20:35 | 42.83762 | 5.40796 | 37995 ft | 526 kts | 23° |
| 2026-05-07 20:35 | 42.90345 | 5.45159 | 37996 ft | 526 kts | 23° |
| 2026-05-07 20:36 | 42.96914 | 5.49535 | 37991 ft | 525 kts | 23° |
| 2026-05-07 20:36 | 43.03477 | 5.53921 | 37992 ft | 525 kts | 24° |
| 2026-05-07 20:37 | 43.09773 | 5.59007 | 37994 ft | 528 kts | 37° |
| 2026-05-07 20:37 | 43.14886 | 5.66241 | 37994 ft | 530 kts | 54° |
| 2026-05-07 20:38 | 43.18330 | 5.75042 | 37985 ft | 528 kts | 71° |
| 2026-05-07 20:38 | 43.19873 | 5.84810 | 37979 ft | 523 kts | 89° |
| 2026-05-07 20:39 | 43.19371 | 5.94635 | 37970 ft | 509 kts | 107° |
| 2026-05-07 20:39 | 43.18419 | 5.99233 | 37984 ft | 495 kts | 112° |
| 2026-05-07 20:39 | 43.17912 | 6.03933 | 37995 ft | 505 kts | 91° |
| 2026-05-07 20:39 | 43.18628 | 6.08673 | 37738 ft | 516 kts | 68° |
| 2026-05-07 20:40 | 43.20323 | 6.12997 | 37783 ft | 516 kts | 59° |
| 2026-05-07 20:40 | 43.22249 | 6.17105 | 37922 ft | 517 kts | 57° |
| 2026-05-07 20:40 | 43.24465 | 6.20980 | 37992 ft | 517 kts | 46° |
| 2026-05-07 20:40 | 43.27137 | 6.24271 | 37994 ft | 516 kts | 34° |
| 2026-05-07 20:41 | 43.30183 | 6.26861 | 37992 ft | 512 kts | 23° |
| 2026-05-07 20:41 | 43.33474 | 6.28641 | 37997 ft | 506 kts | 12° |
| 2026-05-07 20:41 | 43.36902 | 6.29564 | 37996 ft | 500 kts | 1° |
| 2026-05-07 20:41 | 43.40360 | 6.29603 | 37997 ft | 492 kts | 349° |
| 2026-05-07 20:42 | 43.43684 | 6.28769 | 37996 ft | 482 kts | 338° |
| 2026-05-07 20:42 | 43.48631 | 6.25585 | 37994 ft | 465 kts | 319° |
| 2026-05-07 20:42 | 43.51759 | 6.21674 | 37991 ft | 452 kts | 303° |
| 2026-05-07 20:43 | 43.52995 | 6.19321 | 37989 ft | 446 kts | 296° |
| 2026-05-07 20:43 | 43.54336 | 6.15545 | 37793 ft | 435 kts | 284° |
| 2026-05-07 20:43 | 43.55062 | 6.11583 | 37315 ft | 428 kts | 273° |
| 2026-05-07 20:43 | 43.55172 | 6.07520 | 36590 ft | 422 kts | 263° |
| 2026-05-07 20:44 | 43.54759 | 6.03530 | 35657 ft | 421 kts | 255° |
| 2026-05-07 20:44 | 43.54102 | 5.99613 | 33614 ft | 425 kts | 255° |
| 2026-05-07 20:44 | 43.53456 | 5.95550 | 30007 ft | 439 kts | 256° |
| 2026-05-07 20:44 | 43.52820 | 5.91325 | 26939 ft | 456 kts | 257° |
| 2026-05-07 20:45 | 43.52184 | 5.87117 | 25345 ft | 443 kts | 257° |
| 2026-05-07 20:45 | 43.51555 | 5.83012 | 23870 ft | 432 kts | 257° |
| 2026-05-07 20:45 | 43.50603 | 5.79144 | 22448 ft | 419 kts | 249° |
| 2026-05-07 20:45 | 43.49597 | 5.75432 | 21151 ft | 407 kts | 249° |
| 2026-05-07 20:46 | 43.48685 | 5.71792 | 19955 ft | 396 kts | 251° |
| 2026-05-07 20:46 | 43.47819 | 5.68248 | 18837 ft | 385 kts | 250° |
| 2026-05-07 20:46 | 43.46701 | 5.64975 | 17895 ft | 370 kts | 235° |
| 2026-05-07 20:46 | 43.45189 | 5.62403 | 18166 ft | 327 kts | 228° |
| 2026-05-07 20:47 | 43.43724 | 5.60041 | 18333 ft | 332 kts | 230° |
| 2026-05-07 20:47 | 43.42265 | 5.57536 | 17088 ft | 348 kts | 231° |
| 2026-05-07 20:47 | 43.40619 | 5.54751 | 14312 ft | 402 kts | 230° |
| 2026-05-07 20:47 | 43.38836 | 5.51745 | 12933 ft | 399 kts | 230° |
| 2026-05-07 20:48 | 43.36979 | 5.49032 | 11607 ft | 382 kts | 225° |
| 2026-05-07 20:48 | 43.35133 | 5.46456 | 10080 ft | 372 kts | 223° |
| 2026-05-07 20:48 | 43.33004 | 5.44572 | 8776 ft | 357 kts | 202° |
| 2026-05-07 20:48 | 43.30681 | 5.43643 | 7700 ft | 339 kts | 189° |
| 2026-05-07 20:49 | 43.28399 | 5.43247 | 6702 ft | 320 kts | 185° |
| 2026-05-07 20:49 | 43.26239 | 5.42441 | 5248 ft | 324 kts | 206° |
| 2026-05-07 20:49 | 43.24573 | 5.40679 | 5129 ft | 289 kts | 227° |
| 2026-05-07 20:49 | 43.23598 | 5.38364 | 4714 ft | 280 kts | 250° |
| 2026-05-07 20:50 | 43.23367 | 5.35742 | 4001 ft | 278 kts | 274° |
| 2026-05-07 20:50 | 43.23959 | 5.33270 | 3504 ft | 275 kts | 301° |
| 2026-05-07 20:50 | 43.25287 | 5.31379 | 3245 ft | 277 kts | 326° |
| 2026-05-07 20:50 | 43.27022 | 5.30349 | 3092 ft | 276 kts | 348° |
| 2026-05-07 20:51 | 43.28877 | 5.30155 | 3025 ft | 264 kts | 359° |
| 2026-05-07 20:51 | 43.30720 | 5.30067 | 3002 ft | 262 kts | 358° |
| 2026-05-07 20:51 | 43.32444 | 5.29973 | 2996 ft | 227 kts | 358° |
| 2026-05-07 20:51 | 43.33915 | 5.29880 | 2992 ft | 197 kts | 358° |
| 2026-05-07 20:52 | 43.35200 | 5.29793 | 2993 ft | 175 kts | 358° |
| 2026-05-07 20:52 | 43.36408 | 5.29711 | 3005 ft | 174 kts | 358° |
| 2026-05-07 20:52 | 43.37657 | 5.29584 | 2978 ft | 183 kts | 350° |
| 2026-05-07 20:52 | 43.38764 | 5.28757 | 3008 ft | 184 kts | 316° |
| 2026-05-07 20:53 | 43.39647 | 5.27476 | 3011 ft | 184 kts | 311° |
| 2026-05-07 20:53 | 43.40506 | 5.26127 | 3014 ft | 196 kts | 311° |
| 2026-05-07 20:53 | 43.41460 | 5.24660 | 2990 ft | 216 kts | 312° |
| 2026-05-07 20:53 | 43.42538 | 5.23071 | 2986 ft | 239 kts | 313° |
| 2026-05-07 20:54 | 43.43713 | 5.21385 | 3008 ft | 247 kts | 314° |
| 2026-05-07 20:54 | 43.44916 | 5.19679 | 3024 ft | 250 kts | 314° |
| 2026-05-07 20:54 | 43.46164 | 5.17915 | 3158 ft | 266 kts | 314° |
| 2026-05-07 20:54 | 43.47285 | 5.15862 | 3672 ft | 269 kts | 296° |
| 2026-05-07 20:55 | 43.47719 | 5.13375 | 3916 ft | 269 kts | 270° |
| 2026-05-07 20:55 | 43.47340 | 5.10875 | 3998 ft | 268 kts | 244° |
| 2026-05-07 20:55 | 43.46244 | 5.08836 | 3995 ft | 266 kts | 220° |
| 2026-05-07 20:55 | 43.44639 | 5.07635 | 4009 ft | 263 kts | 193° |
| 2026-05-07 20:56 | 43.42828 | 5.07532 | 4007 ft | 262 kts | 173° |
| 2026-05-07 20:56 | 43.41012 | 5.07779 | 4000 ft | 262 kts | 173° |
| 2026-05-07 20:56 | 43.39212 | 5.08020 | 3863 ft | 259 kts | 173° |
| 2026-05-07 20:56 | 43.37420 | 5.08263 | 3423 ft | 258 kts | 173° |
| 2026-05-07 20:57 | 43.35639 | 5.08508 | 2807 ft | 257 kts | 173° |
| 2026-05-07 20:57 | 43.33886 | 5.08835 | 2355 ft | 253 kts | 165° |
| 2026-05-07 20:57 | 43.32338 | 5.10019 | 2231 ft | 258 kts | 137° |
| 2026-05-07 20:57 | 43.31147 | 5.11852 | 2193 ft | 258 kts | 128° |
| 2026-05-07 20:58 | 43.30056 | 5.13807 | 2192 ft | 258 kts | 127° |
| 2026-05-07 20:58 | 43.29098 | 5.15854 | 2211 ft | 258 kts | 112° |
| 2026-05-07 20:58 | 43.28837 | 5.18274 | 2199 ft | 260 kts | 85° |
| 2026-05-07 20:58 | 43.29199 | 5.20684 | 2064 ft | 257 kts | 77° |
| 2026-05-07 20:59 | 43.29591 | 5.23091 | 2006 ft | 259 kts | 77° |
| 2026-05-07 20:59 | 43.29983 | 5.25502 | 2002 ft | 259 kts | 77° |
| 2026-05-07 20:59 | 43.30549 | 5.27808 | 1995 ft | 249 kts | 59° |
| 2026-05-07 20:59 | 43.31697 | 5.29394 | 1993 ft | 224 kts | 29° |
| 2026-05-07 21:00 | 43.33114 | 5.29946 | 1992 ft | 204 kts | 2° |
| 2026-05-07 21:00 | 43.34455 | 5.29802 | 1981 ft | 182 kts | 353° |
| 2026-05-07 21:00 | 43.35703 | 5.29643 | 2013 ft | 183 kts | 355° |
| 2026-05-07 21:00 | 43.36948 | 5.29547 | 1999 ft | 176 kts | 357° |
| 2026-05-07 21:01 | 43.38150 | 5.29252 | 2001 ft | 177 kts | 334° |
| 2026-05-07 21:01 | 43.39099 | 5.28179 | 1927 ft | 180 kts | 312° |
| 2026-05-07 21:01 | 43.39915 | 5.26861 | 1523 ft | 180 kts | 311° |
| 2026-05-07 21:01 | 43.40776 | 5.25657 | 1130 ft | 173 kts | 310° |
| 2026-05-07 21:02 | 43.41567 | 5.24446 | 725 ft | 170 kts | 311° |
| 2026-05-07 21:02 | 43.42388 | 5.23301 | 382 ft | 165 kts | 315° |
| 2026-05-07 21:02 | 43.43160 | 5.22181 | 139 ft | 155 kts | 319° |
| 2026-05-07 21:02 | 43.43889 | 5.21184 | 47 ft | 132 kts | 313° |
| 2026-05-07 21:03 | 43.44397 | 5.20455 | 34 ft | 84 kts | 314° |
| 2026-05-07 21:03 | 43.44625 | 5.20210 | 28 ft | 0 kts | 13° |
| 2026-05-07 21:03 | 43.44680 | 5.20290 | 27 ft | 18 kts | 68° |
| 2026-05-07 21:03 | 43.44649 | 5.20403 | 29 ft | 13 kts | 122° |
| 2026-05-07 21:04 | 43.44582 | 5.20483 | 30 ft | 13 kts | 140° |
| 2026-05-07 21:04 | 43.44514 | 5.20567 | 32 ft | 13 kts | 138° |
| 2026-05-07 21:04 | 43.44446 | 5.20658 | 33 ft | 14 kts | 131° |
| 2026-05-07 21:04 | 43.44382 | 5.20760 | 35 ft | 14 kts | 131° |
| 2026-05-07 21:05 | 43.44316 | 5.20867 | 36 ft | 15 kts | 125° |
| 2026-05-07 21:05 | 43.44263 | 5.20989 | 38 ft | 15 kts | 122° |
| 2026-05-07 21:05 | 43.44196 | 5.21098 | 40 ft | 15 kts | 132° |
| 2026-05-07 21:05 | 43.44125 | 5.21205 | 42 ft | 15 kts | 132° |
| 2026-05-07 21:06 | 43.44050 | 5.21303 | 44 ft | 15 kts | 142° |
| 2026-05-07 21:06 | 43.43974 | 5.21396 | 47 ft | 15 kts | 135° |
| 2026-05-07 21:06 | 43.43928 | 5.21510 | 44 ft | 14 kts | 99° |
| 2026-05-07 21:06 | 43.43959 | 5.21627 | 48 ft | 14 kts | 68° |
| 2026-05-07 21:07 | 43.43996 | 5.21757 | 49 ft | 15 kts | 69° |
| 2026-05-07 21:07 | 43.44033 | 5.21889 | 17 ft | 15 kts | 69° |
| 2026-05-07 21:07 | 43.44033 | 5.22016 | 51 ft | 12 kts | 115° |
| 2026-05-07 21:07 | 43.44047 | 5.22083 | 48 ft | 0 kts | 52° |